Time;durP1;ratioP1;P1;durP2;ratioP2;P2;SDS_P1;SDS_P2;PMS_P1;PMS_P2;Temp;Humidity;BMP_temperature;BMP_pressure;BME280_temperature;BME280_humidity;BME280_pressure;Samples;Min_cycle;Max_cycle;Signal;HPM_P1;HPM_P2
2022/01/31 00:00:07;;;;;;;4.90;1.85;;;;;;;;;;5099053;28;20495;-64
2022/01/31 00:02:35;;;;;;;4.20;1.70;;;;;;;;;;5098937;28;20214;-63
2022/01/31 00:05:02;;;;;;;3.30;1.73;;;;;;;;;;5098426;28;20587;-65
2022/01/31 00:07:29;;;;;;;5.13;1.60;;;;;;;;;;5098435;28;20491;-64
2022/01/31 00:09:58;;;;;;;3.90;1.55;;;;;;;;;;5098573;28;20203;-64
2022/01/31 00:12:31;;;;;;;3.78;1.60;;;;;;;;;;5098717;28;20204;-64
2022/01/31 00:15:02;;;;;;;4.18;1.92;;;;;;;;;;5098571;28;20554;-64
2022/01/31 00:17:30;;;;;;;3.08;1.60;;;;;;;;;;5098738;28;20594;-63
2022/01/31 00:19:57;;;;;;;3.40;1.90;;;;;;;;;;5098453;28;20230;-63
2022/01/31 00:22:24;;;;;;;3.30;1.40;;;;;;;;;;5098535;28;20214;-64
2022/01/31 00:24:51;;;;;;;3.97;1.70;;;;;;;;;;5098301;28;20199;-64
2022/01/31 00:27:22;;;;;;;4.55;1.80;;;;;;;;;;5098974;28;20223;-64
2022/01/31 00:29:49;;;;;;;3.85;1.58;;;;;;;;;;5098327;28;20611;-63
2022/01/31 00:32:16;;;;;;;3.25;1.77;;;;;;;;;;5098127;28;20211;-64
2022/01/31 00:34:43;;;;;;;2.92;1.80;;;;;;;;;;5097413;28;20207;-64
2022/01/31 00:37:11;;;;;;;2.55;1.52;;;;;;;;;;5098107;28;20466;-64
2022/01/31 00:39:38;;;;;;;3.05;1.40;;;;;;;;;;5097361;28;20582;-64
2022/01/31 00:42:07;;;;;;;3.10;1.60;;;;;;;;;;5097391;28;20203;-64
2022/01/31 00:44:46;;;;;;;3.03;1.67;;;;;;;;;;5097341;28;20199;-63
2022/01/31 00:47:19;;;;;;;3.08;1.50;;;;;;;;;;5096348;28;20302;-63
2022/01/31 00:49:52;;;;;;;3.50;1.60;;;;;;;;;;5096848;28;20212;-63
2022/01/31 00:52:20;;;;;;;3.80;1.85;;;;;;;;;;5097794;28;20203;-63
2022/01/31 00:54:48;;;;;;;2.45;1.20;;;;;;;;;;5097580;28;20195;-63
2022/01/31 00:57:15;;;;;;;3.65;1.63;;;;;;;;;;5097547;28;20206;-64
2022/01/31 00:59:44;;;;;;;2.97;1.58;;;;;;;;;;5097598;28;20204;-64
2022/01/31 01:02:11;;;;;;;3.80;1.60;;;;;;;;;;5097357;28;20214;-63
2022/01/31 01:04:40;;;;;;;3.67;1.80;;;;;;;;;;5096871;28;20199;-63
2022/01/31 01:07:07;;;;;;;2.45;1.50;;;;;;;;;;5096843;28;20223;-63
2022/01/31 01:09:35;;;;;;;3.53;1.50;;;;;;;;;;5097330;28;20242;-64
2022/01/31 01:12:02;;;;;;;3.22;1.52;;;;;;;;;;5097473;28;20230;-64
2022/01/31 01:14:29;;;;;;;3.30;1.80;;;;;;;;;;5096834;28;20215;-63
2022/01/31 01:16:58;;;;;;;2.55;1.40;;;;;;;;;;5096989;28;20199;-63
2022/01/31 01:19:26;;;;;;;3.85;1.83;;;;;;;;;;5097349;28;20567;-63
2022/01/31 01:21:53;;;;;;;2.85;1.40;;;;;;;;;;5096942;28;20203;-63
2022/01/31 01:24:20;;;;;;;2.78;1.52;;;;;;;;;;5096804;28;20212;-63
2022/01/31 01:29:23;;;;;;;2.70;1.73;;;;;;;;;;5145959;22;20239;-62
2022/01/31 01:31:51;;;;;;;3.25;1.50;;;;;;;;;;5097632;28;20204;-62
2022/01/31 01:34:21;;;;;;;2.92;1.40;;;;;;;;;;5097111;28;20203;-62
2022/01/31 01:36:52;;;;;;;3.67;1.58;;;;;;;;;;5096880;28;20233;-62
2022/01/31 01:39:19;;;;;;;3.28;1.70;;;;;;;;;;5097466;28;20203;-62
2022/01/31 01:41:47;;;;;;;2.80;1.58;;;;;;;;;;5097210;28;20288;-62
2022/01/31 01:44:14;;;;;;;3.88;1.75;;;;;;;;;;5097317;28;20203;-62
2022/01/31 01:46:41;;;;;;;3.33;1.80;;;;;;;;;;5096773;28;20254;-62
2022/01/31 01:49:09;;;;;;;2.80;1.58;;;;;;;;;;5096453;28;20494;-62
2022/01/31 01:51:39;;;;;;;3.25;1.60;;;;;;;;;;5096181;28;20302;-62
2022/01/31 01:54:06;;;;;;;2.70;1.50;;;;;;;;;;5095079;28;20633;-62
2022/01/31 01:56:33;;;;;;;3.60;1.65;;;;;;;;;;5097132;28;20199;-62
2022/01/31 01:59:04;;;;;;;3.20;1.83;;;;;;;;;;5099449;28;20459;-62
2022/01/31 02:01:31;;;;;;;3.75;1.75;;;;;;;;;;5101105;28;20485;-62
2022/01/31 02:03:59;;;;;;;4.50;1.85;;;;;;;;;;5087224;28;20201;-62
2022/01/31 02:06:26;;;;;;;3.47;1.80;;;;;;;;;;5080128;28;20223;-62
2022/01/31 02:08:55;;;;;;;3.58;1.85;;;;;;;;;;5079877;28;20588;-62
2022/01/31 02:11:23;;;;;;;3.08;1.65;;;;;;;;;;5080241;28;20266;-62
2022/01/31 02:13:50;;;;;;;3.40;1.88;;;;;;;;;;5091422;28;20200;-62
2022/01/31 02:16:19;;;;;;;3.38;1.60;;;;;;;;;;5100417;28;20307;-62
2022/01/31 02:18:49;;;;;;;2.97;1.55;;;;;;;;;;5100190;28;20207;-62
2022/01/31 02:21:18;;;;;;;3.28;1.88;;;;;;;;;;5100560;28;20306;-62
2022/01/31 02:23:45;;;;;;;3.50;1.80;;;;;;;;;;5098677;28;20597;-62
2022/01/31 02:26:13;;;;;;;2.70;1.80;;;;;;;;;;5100346;28;20224;-62
2022/01/31 02:28:41;;;;;;;3.50;1.63;;;;;;;;;;5100039;28;20254;-62
2022/01/31 02:31:08;;;;;;;3.00;1.60;;;;;;;;;;5100542;28;20211;-62
2022/01/31 02:33:36;;;;;;;3.40;1.90;;;;;;;;;;5081820;28;20208;-62
2022/01/31 02:36:04;;;;;;;2.50;1.52;;;;;;;;;;5080267;28;20219;-62
2022/01/31 02:38:33;;;;;;;4.00;2.08;;;;;;;;;;5080645;28;20227;-62
2022/01/31 02:41:01;;;;;;;3.08;1.88;;;;;;;;;;5080098;28;20303;-62
2022/01/31 02:43:30;;;;;;;2.70;1.70;;;;;;;;;;5081129;28;20208;-62
2022/01/31 02:45:58;;;;;;;2.78;1.70;;;;;;;;;;5079947;28;20204;-62
2022/01/31 02:48:27;;;;;;;2.85;1.67;;;;;;;;;;5080159;28;20203;-62
2022/01/31 02:50:55;;;;;;;2.30;1.63;;;;;;;;;;5080075;28;20231;-62
2022/01/31 02:53:25;;;;;;;3.13;1.65;;;;;;;;;;5094694;28;20211;-62
2022/01/31 02:55:55;;;;;;;3.50;1.85;;;;;;;;;;5099689;28;20231;-62
2022/01/31 02:58:23;;;;;;;3.03;1.77;;;;;;;;;;5100221;28;20214;-62
2022/01/31 03:00:50;;;;;;;3.53;1.95;;;;;;;;;;5099837;28;20212;-62
2022/01/31 03:03:18;;;;;;;2.90;1.40;;;;;;;;;;5084513;28;20211;-62
2022/01/31 03:05:45;;;;;;;2.67;1.75;;;;;;;;;;5079721;28;20548;-62
2022/01/31 03:08:12;;;;;;;3.05;1.38;;;;;;;;;;5079140;28;20224;-62
2022/01/31 03:10:40;;;;;;;2.42;1.60;;;;;;;;;;5078054;28;20220;-62
2022/01/31 03:13:09;;;;;;;3.33;1.95;;;;;;;;;;5092486;28;20208;-62
2022/01/31 03:15:36;;;;;;;3.47;1.88;;;;;;;;;;5099513;28;20210;-62
2022/01/31 03:18:05;;;;;;;3.15;1.77;;;;;;;;;;5099728;28;20211;-62
2022/01/31 03:20:32;;;;;;;2.90;1.63;;;;;;;;;;5099414;28;20206;-62
2022/01/31 03:23:01;;;;;;;3.08;1.70;;;;;;;;;;5086810;28;20219;-62
2022/01/31 03:25:28;;;;;;;2.40;1.58;;;;;;;;;;5079376;28;20212;-62
2022/01/31 03:27:56;;;;;;;2.65;1.50;;;;;;;;;;5078572;28;20228;-62
2022/01/31 03:30:25;;;;;;;3.20;1.65;;;;;;;;;;5079343;28;20204;-62
2022/01/31 03:32:53;;;;;;;3.33;1.63;;;;;;;;;;5089793;28;20199;-62
2022/01/31 03:35:21;;;;;;;4.15;1.88;;;;;;;;;;5098931;28;20211;-62
2022/01/31 03:37:49;;;;;;;2.28;1.50;;;;;;;;;;5099526;28;20295;-62
2022/01/31 03:40:16;;;;;;;2.90;1.85;;;;;;;;;;5099331;28;20218;-62
2022/01/31 03:42:43;;;;;;;3.05;1.70;;;;;;;;;;5089821;28;20196;-62
2022/01/31 03:45:12;;;;;;;2.10;1.60;;;;;;;;;;5078959;28;20211;-62
2022/01/31 03:47:44;;;;;;;3.63;2.08;;;;;;;;;;5078860;28;20228;-62
2022/01/31 03:50:13;;;;;;;2.80;1.83;;;;;;;;;;5078655;28;20750;-62
2022/01/31 03:52:42;;;;;;;3.25;1.50;;;;;;;;;;5086908;28;20273;-62
2022/01/31 03:55:10;;;;;;;2.38;1.50;;;;;;;;;;5098928;28;20214;-62
2022/01/31 03:57:37;;;;;;;2.83;1.50;;;;;;;;;;5099047;28;20486;-62
2022/01/31 04:00:06;;;;;;;3.92;1.60;;;;;;;;;;5099008;28;20211;-62
2022/01/31 04:02:33;;;;;;;2.67;1.65;;;;;;;;;;5090695;28;20208;-62
2022/01/31 04:05:03;;;;;;;2.50;1.58;;;;;;;;;;5089423;28;20210;-62
2022/01/31 04:07:30;;;;;;;2.88;1.60;;;;;;;;;;5098299;28;20231;-62
2022/01/31 04:09:57;;;;;;;2.53;1.50;;;;;;;;;;5099007;28;20203;-62
2022/01/31 04:12:24;;;;;;;2.85;1.95;;;;;;;;;;5092348;28;20203;-62
2022/01/31 04:14:52;;;;;;;2.65;1.73;;;;;;;;;;5078297;28;20204;-62
2022/01/31 04:17:21;;;;;;;2.30;1.50;;;;;;;;;;5078259;28;20576;-62
2022/01/31 04:19:48;;;;;;;2.90;1.80;;;;;;;;;;5078390;28;20204;-62
2022/01/31 04:22:19;;;;;;;1.77;1.42;;;;;;;;;;5082387;28;20195;-61
2022/01/31 04:24:48;;;;;;;2.83;1.80;;;;;;;;;;5098540;28;20214;-62
2022/01/31 04:27:19;;;;;;;3.42;1.80;;;;;;;;;;5098088;28;20326;-61
2022/01/31 04:29:48;;;;;;;3.15;1.70;;;;;;;;;;5098117;28;20253;-61
2022/01/31 04:32:16;;;;;;;3.15;1.80;;;;;;;;;;5093367;28;20200;-61
2022/01/31 04:34:43;;;;;;;2.75;1.48;;;;;;;;;;5077469;28;20211;-61
2022/01/31 04:37:11;;;;;;;2.40;1.70;;;;;;;;;;5077312;28;20200;-61
2022/01/31 04:39:40;;;;;;;2.35;2.00;;;;;;;;;;5078036;28;20485;-61
2022/01/31 04:42:08;;;;;;;3.33;1.70;;;;;;;;;;5077413;28;20199;-62
2022/01/31 04:44:36;;;;;;;2.30;1.60;;;;;;;;;;5076937;28;20205;-62
2022/01/31 04:47:04;;;;;;;2.55;1.83;;;;;;;;;;5077083;28;20263;-61
2022/01/31 04:49:33;;;;;;;3.15;1.50;;;;;;;;;;5076395;28;20204;-61
2022/01/31 04:52:01;;;;;;;3.47;1.90;;;;;;;;;;5076891;28;20226;-61
2022/01/31 04:54:28;;;;;;;2.45;1.77;;;;;;;;;;5076673;28;20279;-61
2022/01/31 04:56:57;;;;;;;2.70;1.75;;;;;;;;;;5076301;28;20208;-61
2022/01/31 04:59:25;;;;;;;2.72;1.85;;;;;;;;;;5076646;28;20303;-62
2022/01/31 05:01:52;;;;;;;4.80;1.75;;;;;;;;;;5077147;28;20204;-61
2022/01/31 05:04:19;;;;;;;2.63;1.50;;;;;;;;;;5097929;28;20208;-61
2022/01/31 05:06:48;;;;;;;2.67;1.70;;;;;;;;;;5097312;28;20502;-61
2022/01/31 05:09:15;;;;;;;3.40;1.80;;;;;;;;;;5097151;28;20214;-61
2022/01/31 05:11:43;;;;;;;2.63;1.52;;;;;;;;;;5097165;28;20203;-61
2022/01/31 05:14:12;;;;;;;3.85;1.83;;;;;;;;;;5077084;28;20200;-62
2022/01/31 05:16:39;;;;;;;3.25;1.77;;;;;;;;;;5076082;28;20295;-61
2022/01/31 05:19:07;;;;;;;3.83;1.73;;;;;;;;;;5076868;28;20479;-61
2022/01/31 05:21:34;;;;;;;3.40;1.92;;;;;;;;;;5076974;28;20212;-62
2022/01/31 05:24:01;;;;;;;2.95;1.50;;;;;;;;;;5092985;28;20199;-62
2022/01/31 05:26:29;;;;;;;2.47;1.70;;;;;;;;;;5096918;28;20211;-61
2022/01/31 05:28:56;;;;;;;2.78;1.67;;;;;;;;;;5096160;28;20223;-61
2022/01/31 05:31:25;;;;;;;2.65;1.83;;;;;;;;;;5096472;28;20658;-61
2022/01/31 05:33:52;;;;;;;2.90;1.80;;;;;;;;;;5079446;28;20615;-61
2022/01/31 05:36:21;;;;;;;3.42;1.80;;;;;;;;;;5076362;28;20208;-61
2022/01/31 05:38:48;;;;;;;2.83;1.70;;;;;;;;;;5075909;28;20204;-61
2022/01/31 05:41:19;;;;;;;3.35;1.65;;;;;;;;;;5075979;28;20200;-61
2022/01/31 05:43:46;;;;;;;3.42;1.90;;;;;;;;;;5090288;28;20238;-61
2022/01/31 05:46:13;;;;;;;3.28;1.77;;;;;;;;;;5095097;28;20206;-61
2022/01/31 05:48:42;;;;;;;3.17;1.70;;;;;;;;;;5095362;28;20238;-61
2022/01/31 05:51:13;;;;;;;3.38;1.63;;;;;;;;;;5096042;28;20203;-61
2022/01/31 05:53:40;;;;;;;2.38;1.60;;;;;;;;;;5080773;28;20211;-62
2022/01/31 05:56:08;;;;;;;2.20;1.58;;;;;;;;;;5074886;28;20204;-61
2022/01/31 05:58:36;;;;;;;3.78;1.90;;;;;;;;;;5074668;28;20204;-61
2022/01/31 06:01:03;;;;;;;1.92;1.58;;;;;;;;;;5075249;28;20231;-61
2022/01/31 06:03:31;;;;;;;3.33;1.88;;;;;;;;;;5086658;28;20735;-61
2022/01/31 06:06:00;;;;;;;3.55;1.92;;;;;;;;;;5094476;28;20575;-61
2022/01/31 06:08:28;;;;;;;3.33;1.65;;;;;;;;;;5095320;28;20246;-61
2022/01/31 06:10:56;;;;;;;4.28;1.60;;;;;;;;;;5095113;28;20250;-62
2022/01/31 06:13:27;;;;;;;2.80;1.65;;;;;;;;;;5083963;28;20215;-61
2022/01/31 06:15:54;;;;;;;3.22;1.67;;;;;;;;;;5074389;28;20200;-61
2022/01/31 06:18:22;;;;;;;2.40;1.70;;;;;;;;;;5073525;28;20215;-62
2022/01/31 06:20:49;;;;;;;3.20;1.77;;;;;;;;;;5073630;28;20212;-61
2022/01/31 06:23:18;;;;;;;3.35;1.73;;;;;;;;;;5073477;28;20200;-61
2022/01/31 06:25:47;;;;;;;2.35;1.42;;;;;;;;;;5073399;28;20204;-61
2022/01/31 06:28:14;;;;;;;2.55;1.50;;;;;;;;;;5073366;28;20243;-61
2022/01/31 06:30:42;;;;;;;2.60;1.80;;;;;;;;;;5073275;28;20212;-61
2022/01/31 06:33:09;;;;;;;3.08;1.60;;;;;;;;;;5081725;28;20195;-61
2022/01/31 06:35:36;;;;;;;3.22;1.77;;;;;;;;;;5094170;28;20199;-61
2022/01/31 06:38:04;;;;;;;2.53;1.65;;;;;;;;;;5094224;28;20203;-61
2022/01/31 06:40:32;;;;;;;3.00;1.40;;;;;;;;;;5093671;28;20195;-61
2022/01/31 06:42:59;;;;;;;2.83;1.60;;;;;;;;;;5086750;28;20547;-62
2022/01/31 06:45:27;;;;;;;3.08;1.67;;;;;;;;;;5075295;28;20204;-61
2022/01/31 06:47:54;;;;;;;3.00;1.63;;;;;;;;;;5077862;28;20224;-62
2022/01/31 06:50:23;;;;;;;3.10;1.73;;;;;;;;;;5076905;28;20505;-62
2022/01/31 06:52:54;;;;;;;3.65;1.73;;;;;;;;;;5083147;28;20200;-61
2022/01/31 06:55:21;;;;;;;3.03;1.50;;;;;;;;;;5096492;28;20211;-61
2022/01/31 06:57:51;;;;;;;2.63;1.90;;;;;;;;;;5097645;28;20612;-62
2022/01/31 07:00:19;;;;;;;3.22;1.65;;;;;;;;;;5097842;28;20587;-62
2022/01/31 07:02:46;;;;;;;2.80;1.60;;;;;;;;;;5093184;28;20196;-61
2022/01/31 07:05:14;;;;;;;2.90;1.77;;;;;;;;;;5077465;28;20231;-62
2022/01/31 07:07:42;;;;;;;3.38;1.90;;;;;;;;;;5077646;28;20293;-62
2022/01/31 07:10:10;;;;;;;3.08;1.58;;;;;;;;;;5077660;28;20204;-61
2022/01/31 07:12:40;;;;;;;3.10;1.80;;;;;;;;;;5080051;28;20196;-61
2022/01/31 07:15:11;;;;;;;2.47;1.70;;;;;;;;;;5095991;28;20552;-61
2022/01/31 07:17:39;;;;;;;2.45;1.65;;;;;;;;;;5096035;28;20200;-61
2022/01/31 07:20:09;;;;;;;2.05;1.20;;;;;;;;;;5095825;28;20211;-61
2022/01/31 07:22:39;;;;;;;2.45;1.65;;;;;;;;;;5095595;28;20286;-61
2022/01/31 07:25:09;;;;;;;3.03;1.70;;;;;;;;;;5097743;28;20218;-61
2022/01/31 07:27:36;;;;;;;3.20;1.60;;;;;;;;;;5096452;28;20637;-61
2022/01/31 07:30:04;;;;;;;2.40;1.48;;;;;;;;;;5097540;28;20211;-61
2022/01/31 07:32:35;;;;;;;2.35;1.50;;;;;;;;;;5094347;28;20204;-61
2022/01/31 07:35:02;;;;;;;1.58;1.38;;;;;;;;;;5076784;28;20686;-62
2022/01/31 07:37:30;;;;;;;2.50;1.80;;;;;;;;;;5077455;28;20211;-61
2022/01/31 07:39:58;;;;;;;2.92;1.60;;;;;;;;;;5096662;28;20306;-61
2022/01/31 07:42:26;;;;;;;2.20;1.58;;;;;;;;;;5094968;28;20203;-61
2022/01/31 07:44:54;;;;;;;2.10;1.40;;;;;;;;;;5076802;28;20577;-62
2022/01/31 07:47:21;;;;;;;2.38;1.60;;;;;;;;;;5076382;28;20228;-61
2022/01/31 07:49:51;;;;;;;1.83;1.42;;;;;;;;;;5076111;28;20224;-61
2022/01/31 07:52:18;;;;;;;2.17;1.50;;;;;;;;;;5081023;28;20207;-61
2022/01/31 07:54:46;;;;;;;2.53;1.27;;;;;;;;;;5095911;28;20203;-62
2022/01/31 07:57:13;;;;;;;1.60;1.33;;;;;;;;;;5095705;28;20203;-61
2022/01/31 07:59:41;;;;;;;2.35;1.42;;;;;;;;;;5096105;28;20626;-61
2022/01/31 08:02:08;;;;;;;2.45;1.55;;;;;;;;;;5096657;28;20211;-61
2022/01/31 08:04:35;;;;;;;1.90;1.20;;;;;;;;;;5077284;28;20204;-61
2022/01/31 08:07:04;;;;;;;1.63;1.15;;;;;;;;;;5076180;28;20204;-61
2022/01/31 08:09:32;;;;;;;2.03;1.45;;;;;;;;;;5075404;28;20329;-61
2022/01/31 08:11:59;;;;;;;2.15;1.50;;;;;;;;;;5075742;28;20215;-61
2022/01/31 08:14:27;;;;;;;1.55;1.38;;;;;;;;;;5093316;28;20231;-61
2022/01/31 08:16:54;;;;;;;2.53;1.50;;;;;;;;;;5096468;28;20298;-61
2022/01/31 08:19:22;;;;;;;1.40;1.30;;;;;;;;;;5095951;28;20203;-62
2022/01/31 08:21:49;;;;;;;2.40;1.58;;;;;;;;;;5095901;28;20208;-61
2022/01/31 08:24:18;;;;;;;2.35;1.40;;;;;;;;;;5079818;28;20204;-61
2022/01/31 08:26:45;;;;;;;2.35;1.40;;;;;;;;;;5075844;28;20233;-61
2022/01/31 08:29:20;;;;;;;1.55;1.30;;;;;;;;;;5075383;28;20240;-61
2022/01/31 08:31:52;;;;;;;1.70;1.33;;;;;;;;;;5075167;28;20587;-61
2022/01/31 08:34:24;;;;;;;2.40;1.52;;;;;;;;;;5090774;28;20196;-62
2022/01/31 08:36:52;;;;;;;2.28;1.70;;;;;;;;;;5095423;28;20468;-61
2022/01/31 08:39:22;;;;;;;2.47;1.65;;;;;;;;;;5095957;28;20207;-62
2022/01/31 08:41:51;;;;;;;3.03;1.50;;;;;;;;;;5096034;28;20203;-62
2022/01/31 08:44:19;;;;;;;3.40;1.50;;;;;;;;;;5094995;28;20200;-62
2022/01/31 08:46:47;;;;;;;3.17;1.30;;;;;;;;;;5095631;28;20511;-62
2022/01/31 08:49:14;;;;;;;4.65;1.50;;;;;;;;;;5095688;28;20220;-62
2022/01/31 08:51:42;;;;;;;5.30;1.73;;;;;;;;;;5095419;28;20199;-62
2022/01/31 08:54:10;;;;;;;3.63;1.83;;;;;;;;;;5081603;28;20196;-62
2022/01/31 08:56:40;;;;;;;2.83;1.55;;;;;;;;;;5074785;28;20205;-62
2022/01/31 08:59:08;;;;;;;2.15;1.55;;;;;;;;;;5075283;28;20215;-62
2022/01/31 09:01:36;;;;;;;5.18;1.60;;;;;;;;;;5074878;28;20204;-62
2022/01/31 09:04:04;;;;;;;3.42;1.35;;;;;;;;;;5088223;28;20218;-62
2022/01/31 09:06:33;;;;;;;4.82;1.40;;;;;;;;;;5095729;28;20215;-62
2022/01/31 09:09:01;;;;;;;4.85;1.63;;;;;;;;;;5094499;28;20753;-62
2022/01/31 09:11:31;;;;;;;2.50;1.33;;;;;;;;;;5095067;28;20211;-62
2022/01/31 09:14:00;;;;;;;1.75;1.25;;;;;;;;;;5083079;28;20193;-62
2022/01/31 09:16:27;;;;;;;2.53;1.25;;;;;;;;;;5074463;28;20583;-62
2022/01/31 09:18:54;;;;;;;2.17;1.10;;;;;;;;;;5074290;28;20201;-62
2022/01/31 09:21:22;;;;;;;2.65;1.00;;;;;;;;;;5074250;28;20227;-62
2022/01/31 09:23:52;;;;;;;2.17;1.20;;;;;;;;;;5084416;28;20211;-61
2022/01/31 09:26:21;;;;;;;3.05;1.20;;;;;;;;;;5094136;28;20195;-61
2022/01/31 09:28:50;;;;;;;1.80;1.20;;;;;;;;;;5094414;28;20271;-62
2022/01/31 09:31:18;;;;;;;1.85;1.25;;;;;;;;;;5095128;28;20211;-62
2022/01/31 09:33:46;;;;;;;3.72;2.10;;;;;;;;;;5085400;28;20196;-62
2022/01/31 09:36:13;;;;;;;17.85;14.63;;;;;;;;;;5074831;28;20208;-62
2022/01/31 09:38:42;;;;;;;12.73;11.43;;;;;;;;;;5074946;28;20208;-62
2022/01/31 09:41:11;;;;;;;11.23;9.50;;;;;;;;;;5074944;28;20200;-62
2022/01/31 09:46:47;;;;;;;10.88;8.35;;;;;;;;;;5094549;28;20188;-61
2022/01/31 09:49:14;;;;;;;10.13;7.78;;;;;;;;;;5094173;28;20322;-61
2022/01/31 09:51:41;;;;;;;8.60;7.25;;;;;;;;;;5095249;28;20215;-61
2022/01/31 09:54:09;;;;;;;9.30;6.60;;;;;;;;;;5081676;28;20207;-62
2022/01/31 09:56:37;;;;;;;8.88;6.78;;;;;;;;;;5073574;28;20204;-62
2022/01/31 09:59:05;;;;;;;9.00;6.00;;;;;;;;;;5074831;28;20206;-62
2022/01/31 10:01:35;;;;;;;8.32;5.78;;;;;;;;;;5073843;28;20204;-62
2022/01/31 10:04:03;;;;;;;5.88;5.28;;;;;;;;;;5084297;28;20215;-62
2022/01/31 10:06:31;;;;;;;5.97;5.00;;;;;;;;;;5094008;28;20610;-62
2022/01/31 10:09:03;;;;;;;4.88;4.13;;;;;;;;;;5094823;28;20220;-62
2022/01/31 10:11:39;;;;;;;5.53;3.90;;;;;;;;;;5093916;28;20196;-61
2022/01/31 10:16:57;;;;;;;5.40;3.83;;;;;;;;;;5093240;28;20293;-62
2022/01/31 10:19:24;;;;;;;5.03;3.50;;;;;;;;;;5095528;28;20195;-62
2022/01/31 10:22:01;;;;;;;4.35;3.50;;;;;;;;;;5090497;28;20200;-62
2022/01/31 10:24:29;;;;;;;4.68;3.20;;;;;;;;;;5077058;28;20295;-62
2022/01/31 10:26:56;;;;;;;4.78;2.85;;;;;;;;;;5077145;28;20580;-62
2022/01/31 10:29:25;;;;;;;7.05;3.20;;;;;;;;;;5076692;28;20239;-62
2022/01/31 10:32:02;;;;;;;4.38;2.90;;;;;;;;;;5083938;28;20204;-62
2022/01/31 10:34:31;;;;;;;5.32;3.05;;;;;;;;;;5098092;28;20237;-61
2022/01/31 10:37:02;;;;;;;3.95;2.65;;;;;;;;;;5097718;28;20249;-62
2022/01/31 10:45:26;;;;;;;3.97;2.10;;;;;;;;;;5075512;28;20300;-62
2022/01/31 10:51:20;;;;;;;4.03;2.47;;;;;;;;;;5077203;28;20246;-62
2022/01/31 10:53:53;;;;;;;3.47;2.10;;;;;;;;;;5076964;28;20261;-62
2022/01/31 10:56:21;;;;;;;3.70;2.05;;;;;;;;;;5077311;28;20269;-62
2022/01/31 10:58:56;;;;;;;3.63;1.70;;;;;;;;;;5076201;28;20213;-62
2022/01/31 11:01:23;;;;;;;2.85;1.55;;;;;;;;;;5077648;28;20195;-62
2022/01/31 11:03:52;;;;;;;2.60;1.70;;;;;;;;;;5097044;28;20210;-62
2022/01/31 11:06:20;;;;;;;3.05;1.98;;;;;;;;;;5096911;28;20204;-62
2022/01/31 11:08:48;;;;;;;3.42;1.70;;;;;;;;;;5097269;28;20204;-62
2022/01/31 11:11:16;;;;;;;2.95;1.80;;;;;;;;;;5096384;28;20481;-62
2022/01/31 11:13:44;;;;;;;2.60;1.50;;;;;;;;;;5077133;28;20204;-62
2022/01/31 11:16:11;;;;;;;3.50;1.67;;;;;;;;;;5076854;28;20208;-62
2022/01/31 11:18:38;;;;;;;3.92;1.70;;;;;;;;;;5076702;28;20314;-62
2022/01/31 11:21:08;;;;;;;2.30;1.42;;;;;;;;;;5076556;28;20204;-62
2022/01/31 11:23:39;;;;;;;2.72;1.50;;;;;;;;;;5095948;28;20192;-62
2022/01/31 11:26:07;;;;;;;1.65;1.40;;;;;;;;;;5096257;28;20230;-62
2022/01/31 11:28:36;;;;;;;3.97;1.52;;;;;;;;;;5095211;28;20223;-62
2022/01/31 11:31:04;;;;;;;2.42;1.50;;;;;;;;;;5095413;28;20192;-62
2022/01/31 11:33:31;;;;;;;3.33;1.20;;;;;;;;;;5077629;28;20199;-62
2022/01/31 11:36:00;;;;;;;3.55;1.45;;;;;;;;;;5076367;28;20204;-62
2022/01/31 11:38:29;;;;;;;1.92;1.40;;;;;;;;;;5076495;28;20215;-62
2022/01/31 11:41:01;;;;;;;2.88;1.20;;;;;;;;;;5076356;28;20201;-62
2022/01/31 11:43:29;;;;;;;1.52;1.20;;;;;;;;;;5094264;28;20211;-63
2022/01/31 11:45:59;;;;;;;1.75;1.13;;;;;;;;;;5096587;28;20200;-62
2022/01/31 11:48:27;;;;;;;1.48;1.13;;;;;;;;;;5096593;28;20284;-62
2022/01/31 11:50:56;;;;;;;1.85;1.02;;;;;;;;;;5096539;28;20227;-62
2022/01/31 11:53:33;;;;;;;1.95;1.10;;;;;;;;;;5078155;28;20196;-62
2022/01/31 11:56:05;;;;;;;3.33;1.25;;;;;;;;;;5075888;28;20204;-62
2022/01/31 11:58:33;;;;;;;1.65;1.10;;;;;;;;;;5074757;28;20204;-63
2022/01/31 12:01:02;;;;;;;1.10;0.98;;;;;;;;;;5075719;28;20599;-62
2022/01/31 12:03:30;;;;;;;1.20;1.10;;;;;;;;;;5092920;28;20298;-62
2022/01/31 12:05:58;;;;;;;1.38;0.90;;;;;;;;;;5095484;28;20280;-62
2022/01/31 12:08:37;;;;;;;1.95;1.10;;;;;;;;;;5095902;28;20234;-62
2022/01/31 12:11:10;;;;;;;1.15;1.05;;;;;;;;;;5084532;28;20638;-62
2022/01/31 12:13:42;;;;;;;1.25;0.90;;;;;;;;;;5075704;28;20247;-62
2022/01/31 12:16:37;;;;;;;0.85;0.85;;;;;;;;;;5074408;28;20219;-63
2022/01/31 12:19:28;;;;;;;1.08;0.80;;;;;;;;;;5074554;28;20204;-63
2022/01/31 12:22:01;;;;;;;1.30;1.00;;;;;;;;;;5093174;28;20270;-62
2022/01/31 12:24:35;;;;;;;1.27;0.98;;;;;;;;;;5095399;28;20214;-63
2022/01/31 12:27:13;;;;;;;1.00;0.90;;;;;;;;;;5095752;28;20239;-62
2022/01/31 12:29:42;;;;;;;1.73;0.90;;;;;;;;;;5095667;28;20227;-62
2022/01/31 12:32:15;;;;;;;0.80;0.80;;;;;;;;;;5094823;28;20207;-62
2022/01/31 12:34:44;;;;;;;0.88;0.80;;;;;;;;;;5095021;28;20204;-62
2022/01/31 12:37:36;;;;;;;0.80;0.70;;;;;;;;;;5095452;28;20284;-63
2022/01/31 12:40:11;;;;;;;0.73;0.70;;;;;;;;;;5073384;28;20203;-62
2022/01/31 12:43:24;;;;;;;0.80;0.80;;;;;;;;;;5074289;28;20610;-62
2022/01/31 12:46:05;;;;;;;1.00;0.90;;;;;;;;;;5032112;28;20213;-62
2022/01/31 12:48:32;;;;;;;0.70;0.60;;;;;;;;;;5072564;28;20211;-63
2022/01/31 12:51:02;;;;;;;0.88;0.70;;;;;;;;;;5083671;28;20249;-62
2022/01/31 12:53:42;;;;;;;0.73;0.73;;;;;;;;;;5093689;28;20714;-62
2022/01/31 12:56:15;;;;;;;1.35;0.60;;;;;;;;;;5094225;28;20203;-62
2022/01/31 12:58:44;;;;;;;0.70;0.70;;;;;;;;;;5093474;28;20204;-62
2022/01/31 13:01:12;;;;;;;0.80;0.60;;;;;;;;;;5082938;28;20606;-62
2022/01/31 13:03:41;;;;;;;0.77;0.75;;;;;;;;;;5075056;28;20222;-62
2022/01/31 13:06:23;;;;;;;0.93;0.70;;;;;;;;;;5075042;28;20208;-62
2022/01/31 13:08:50;;;;;;;0.60;0.60;;;;;;;;;;5073557;28;20205;-62
2022/01/31 13:11:20;;;;;;;1.38;0.70;;;;;;;;;;5084811;28;20215;-62
2022/01/31 13:13:48;;;;;;;0.80;0.60;;;;;;;;;;5093404;28;20716;-63
2022/01/31 13:16:16;;;;;;;0.70;0.70;;;;;;;;;;5093944;28;20219;-62
2022/01/31 13:18:45;;;;;;;1.13;0.68;;;;;;;;;;5093015;28;20290;-63
2022/01/31 13:21:14;;;;;;;0.70;0.70;;;;;;;;;;5081986;28;20234;-62
2022/01/31 13:23:43;;;;;;;0.63;0.60;;;;;;;;;;5073248;28;20299;-62
2022/01/31 13:26:11;;;;;;;0.63;0.60;;;;;;;;;;5073424;28;20205;-62
2022/01/31 13:28:40;;;;;;;0.70;0.60;;;;;;;;;;5073272;28;20227;-63
2022/01/31 13:31:08;;;;;;;0.50;0.50;;;;;;;;;;5082344;28;20226;-62
2022/01/31 13:33:44;;;;;;;0.63;0.63;;;;;;;;;;5091812;28;20514;-63
2022/01/31 13:36:11;;;;;;;0.57;0.57;;;;;;;;;;5092371;28;20207;-62
2022/01/31 13:38:39;;;;;;;0.60;0.60;;;;;;;;;;5092857;28;20218;-62
2022/01/31 13:41:06;;;;;;;0.90;0.73;;;;;;;;;;5084029;28;20218;-62
2022/01/31 13:43:36;;;;;;;2.35;1.73;;;;;;;;;;5073424;28;20557;-63
2022/01/31 13:46:11;;;;;;;2.63;1.40;;;;;;;;;;5073096;28;20383;-63
2022/01/31 13:48:48;;;;;;;1.58;1.20;;;;;;;;;;5073331;28;20204;-63
2022/01/31 13:51:25;;;;;;;1.80;1.08;;;;;;;;;;5082729;28;20219;-63
2022/01/31 13:53:53;;;;;;;15.90;14.40;;;;;;;;;;5094181;28;20199;-62
2022/01/31 13:56:21;;;;;;;28.05;25.73;;;;;;;;;;5097528;28;20195;-63
2022/01/31 13:58:57;;;;;;;29.58;27.17;;;;;;;;;;5098001;28;20204;-62
2022/01/31 14:01:26;;;;;;;25.98;23.88;;;;;;;;;;5087595;28;20196;-63
2022/01/31 14:03:53;;;;;;;23.73;21.83;;;;;;;;;;5078111;28;20212;-62
2022/01/31 14:06:21;;;;;;;22.33;20.52;;;;;;;;;;5077047;28;20200;-62
2022/01/31 14:08:50;;;;;;;20.70;19.00;;;;;;;;;;5076997;28;20205;-62
2022/01/31 14:11:18;;;;;;;19.52;17.83;;;;;;;;;;5086781;28;20220;-62
2022/01/31 14:13:47;;;;;;;17.58;16.17;;;;;;;;;;5096916;28;20203;-62
2022/01/31 14:16:15;;;;;;;16.65;15.35;;;;;;;;;;5097896;28;20222;-62
2022/01/31 14:18:47;;;;;;;16.15;14.85;;;;;;;;;;5097786;28;20214;-63
2022/01/31 14:21:15;;;;;;;14.82;13.63;;;;;;;;;;5091137;28;20293;-62
2022/01/31 14:23:43;;;;;;;14.73;13.63;;;;;;;;;;5084145;28;20733;-62
2022/01/31 14:26:12;;;;;;;14.02;12.93;;;;;;;;;;5097419;28;20215;-63
2022/01/31 14:28:42;;;;;;;13.00;11.90;;;;;;;;;;5097290;28;20231;-62
2022/01/31 14:31:10;;;;;;;11.93;10.98;;;;;;;;;;5097056;28;20272;-62
2022/01/31 14:33:42;;;;;;;14.95;13.85;;;;;;;;;;5089985;28;20207;-62
2022/01/31 14:36:12;;;;;;;34.50;32.20;;;;;;;;;;5077187;28;20197;-63
2022/01/31 14:38:44;;;;;;;27.55;25.67;;;;;;;;;;5076105;28;20725;-62
2022/01/31 14:41:25;;;;;;;24.10;22.35;;;;;;;;;;5076111;28;20249;-63
2022/01/31 14:49:22;;;;;;;22.67;21.08;;;;;;;;;;5097251;28;20275;-62
2022/01/31 14:51:52;;;;;;;22.33;20.73;;;;;;;;;;5096826;28;20231;-62
2022/01/31 14:54:19;;;;;;;20.65;19.05;;;;;;;;;;5084353;28;20228;-62
2022/01/31 14:56:47;;;;;;;19.23;17.92;;;;;;;;;;5076912;28;20223;-62
2022/01/31 14:59:15;;;;;;;18.63;17.33;;;;;;;;;;5076290;28;20212;-63
2022/01/31 15:01:42;;;;;;;17.40;16.17;;;;;;;;;;5076481;28;20228;-62
2022/01/31 15:04:19;;;;;;;16.67;15.57;;;;;;;;;;5086187;28;20200;-62
2022/01/31 15:06:47;;;;;;;16.75;15.55;;;;;;;;;;5095408;28;20211;-62
2022/01/31 15:09:15;;;;;;;15.43;14.30;;;;;;;;;;5096953;28;20204;-62
2022/01/31 15:11:43;;;;;;;14.23;13.23;;;;;;;;;;5096021;28;20219;-62
2022/01/31 15:14:10;;;;;;;14.20;13.20;;;;;;;;;;5085525;28;20212;-62